createdAt,value
2018-08-19T00:01:12.217Z,403.73
2018-08-19T00:03:40.796Z,407.27
2018-08-19T00:06:09.402Z,402.77
2018-08-19T00:08:37.968Z,396.37
2018-08-19T00:11:07.832Z,373.40
2018-08-19T00:13:37.429Z,344.60
2018-08-19T00:16:06.368Z,344.17
2018-08-19T00:18:36.232Z,338.43
2018-08-19T00:21:09.517Z,307.37
2018-08-19T00:23:43.456Z,302.20
2018-08-19T00:26:13.301Z,270.90
2018-08-19T00:28:41.848Z,277.77
2018-08-19T00:31:10.444Z,296.93
2018-08-19T00:33:39.069Z,274.10
2018-08-19T00:36:26.396Z,291.03
2018-08-19T00:38:55.794Z,228.30
2018-08-19T00:41:24.454Z,239.20
2018-08-19T00:43:53.007Z,229.57
2018-08-19T00:46:26.839Z,229.17
2018-08-19T00:48:55.446Z,206.67
2018-08-19T00:51:24.037Z,198.70
2018-08-19T00:53:52.632Z,222.17
2018-08-19T00:56:21.169Z,195.67
2018-08-19T00:58:49.782Z,213.00
2018-08-19T01:01:30.015Z,223.63
2018-08-19T01:03:59.148Z,223.10
2018-08-19T01:06:28.234Z,235.13
2018-08-19T01:08:56.884Z,244.90
2018-08-19T01:11:34.939Z,250.67
2018-08-19T01:14:07.375Z,249.47
2018-08-19T01:16:35.973Z,247.90
2018-08-19T01:19:04.653Z,241.17
2018-08-19T01:21:33.686Z,251.03
2018-08-19T01:24:04.714Z,239.13
2018-08-19T01:26:33.778Z,244.77
2018-08-19T01:29:02.421Z,248.93
2018-08-19T01:31:30.965Z,240.70
2018-08-19T01:33:59.653Z,240.83
2018-08-19T01:36:29.707Z,253.83
2018-08-19T01:38:58.488Z,244.97
2018-08-19T01:41:27.028Z,253.40
2018-08-19T01:44:06.800Z,249.50
2018-08-19T01:46:50.436Z,239.80
2018-08-19T01:49:18.980Z,240.20
2018-08-19T01:51:47.767Z,239.67
2018-08-19T01:54:22.200Z,235.70
2018-08-19T01:56:52.593Z,239.13
2018-08-19T01:59:21.226Z,239.53
2018-08-19T02:01:50.907Z,247.53
2018-08-19T02:04:20.106Z,243.13
2018-08-19T02:06:48.635Z,237.57
2018-08-19T02:09:18.285Z,245.37
2018-08-19T02:11:51.859Z,255.60
2018-08-19T02:14:21.195Z,272.27
2018-08-19T02:16:50.569Z,253.90
2018-08-19T02:19:19.200Z,252.00
2018-08-19T02:21:48.551Z,269.13
2018-08-19T02:24:17.576Z,252.00
2018-08-19T02:26:46.216Z,255.67
2018-08-19T02:29:31.966Z,260.37
2018-08-19T02:32:02.710Z,263.90
2018-08-19T02:34:37.428Z,267.73
2018-08-19T02:37:14.240Z,268.90
2018-08-19T02:39:44.683Z,280.07
2018-08-19T02:42:26.101Z,278.73
2018-08-19T02:44:58.223Z,269.97
2018-08-19T02:47:26.791Z,281.27
2018-08-19T02:49:55.393Z,285.63
2018-08-19T02:52:36.148Z,278.73
2018-08-19T02:55:06.652Z,282.57
2018-08-19T02:57:36.216Z,280.83
2018-08-19T03:00:05.176Z,265.67
2018-08-19T03:02:35.884Z,276.03
2018-08-19T03:05:07.734Z,280.77
2018-08-19T03:07:36.281Z,281.37
2018-08-19T03:10:10.983Z,266.03
2018-08-19T03:12:40.001Z,277.50
2018-08-19T03:15:09.929Z,285.83
2018-08-19T03:17:38.612Z,266.30
2018-08-19T03:20:09.388Z,264.13
2018-08-19T03:22:37.947Z,273.10
2018-08-19T03:25:06.992Z,277.13
2018-08-19T03:27:35.544Z,275.63
2018-08-19T03:30:06.589Z,282.40
2018-08-19T03:32:35.222Z,269.50
2018-08-19T03:35:12.984Z,260.03
2018-08-19T03:37:41.484Z,264.33
2018-08-19T03:40:10.100Z,259.33
2018-08-19T03:42:38.596Z,260.50
2018-08-19T03:45:11.356Z,240.97
2018-08-19T03:47:39.855Z,262.80
2018-08-19T03:50:13.803Z,247.47
2018-08-19T03:52:43.688Z,245.43
2018-08-19T03:55:17.620Z,270.17
2018-08-19T03:57:46.219Z,284.47
2018-08-19T04:00:16.276Z,280.00
2018-08-19T04:02:44.827Z,314.27
2018-08-19T04:05:13.440Z,327.93
2018-08-19T04:07:42.698Z,373.03
2018-08-19T04:10:11.654Z,379.67
2018-08-19T04:12:40.213Z,463.47
2018-08-19T04:15:10.156Z,462.47
2018-08-19T04:17:38.742Z,490.10
2018-08-19T04:20:07.673Z,520.97
2018-08-19T04:22:36.212Z,572.30
2018-08-19T04:25:04.860Z,591.47
2018-08-19T04:27:33.408Z,611.03
2018-08-19T04:30:01.926Z,630.70
2018-08-19T04:32:30.457Z,615.83
2018-08-19T04:34:59.569Z,592.00
2018-08-19T04:37:28.688Z,610.20
2018-08-19T04:39:57.975Z,576.60
2018-08-19T04:42:26.581Z,539.37
2018-08-19T04:44:55.309Z,519.13
2018-08-19T04:47:34.433Z,468.67
2018-08-19T04:50:02.952Z,362.73
2018-08-19T04:52:32.813Z,329.70
2018-08-19T04:55:01.484Z,279.97
2018-08-19T04:57:30.008Z,202.20
2018-08-19T04:59:58.547Z,169.53
2018-08-19T05:02:27.086Z,157.63
2018-08-19T05:04:55.627Z,140.60
2018-08-19T05:07:24.136Z,126.30
2018-08-19T05:09:52.712Z,134.20
2018-08-19T05:12:21.257Z,137.27
2018-08-19T05:14:49.756Z,145.13
2018-08-19T05:17:18.288Z,149.67
2018-08-19T05:19:46.839Z,154.30
2018-08-19T05:22:15.790Z,180.30
2018-08-19T05:24:45.772Z,199.47
2018-08-19T05:27:15.357Z,242.93
2018-08-19T05:29:44.023Z,246.40
2018-08-19T05:32:13.980Z,266.90
2018-08-19T05:34:42.962Z,287.33
2018-08-19T05:37:11.576Z,303.27
2018-08-19T05:39:45.263Z,325.93
2018-08-19T05:42:14.264Z,328.90
2018-08-19T05:44:43.512Z,364.73
2018-08-19T05:47:15.038Z,356.53
2018-08-19T05:49:44.660Z,365.70
2018-08-19T05:52:22.388Z,383.63
2018-08-19T05:55:02.152Z,388.97
2018-08-19T05:57:31.912Z,413.17
2018-08-19T06:00:04.636Z,426.73
2018-08-19T06:02:38.630Z,487.33
2018-08-19T06:05:07.172Z,585.80
2018-08-19T06:07:35.768Z,667.00
2018-08-19T06:10:04.703Z,747.10
2018-08-19T06:12:33.322Z,837.17
2018-08-19T06:15:02.347Z,874.23
2018-08-19T06:17:30.879Z,919.80
2018-08-19T06:19:59.496Z,899.03
2018-08-19T06:22:33.348Z,877.93
2018-08-19T06:25:01.944Z,850.37
2018-08-19T06:27:35.501Z,839.90
2018-08-19T06:30:04.466Z,831.57
2018-08-19T06:32:33.517Z,843.13
2018-08-19T06:35:02.230Z,865.80
2018-08-19T06:37:30.638Z,883.43
2018-08-19T06:39:59.264Z,906.33
2018-08-19T06:42:27.784Z,968.63
2018-08-19T06:44:56.397Z,993.53
2018-08-19T06:47:24.989Z,1019.67
2018-08-19T06:49:54.624Z,1033.07
2018-08-19T06:52:23.998Z,1014.33
2018-08-19T06:54:52.765Z,991.60
2018-08-19T06:57:21.396Z,984.20
2018-08-19T06:59:50.005Z,954.07
2018-08-19T07:02:18.706Z,906.47
2018-08-19T07:04:48.372Z,891.60
2018-08-19T07:07:18.097Z,872.30
2018-08-19T07:09:46.728Z,894.77
2018-08-19T07:12:22.819Z,896.63
2018-08-19T07:14:51.612Z,913.33
2018-08-19T07:17:20.453Z,904.83
2018-08-19T07:19:49.067Z,909.83
2018-08-19T07:22:18.936Z,874.23
2018-08-19T07:24:47.508Z,911.47
2018-08-19T07:27:16.108Z,914.10
2018-08-19T07:29:44.748Z,946.60
2018-08-19T07:32:13.856Z,924.90
2018-08-19T07:34:42.402Z,945.67
2018-08-19T07:37:11.009Z,958.87
2018-08-19T07:39:46.192Z,971.80
2018-08-19T07:42:15.119Z,997.43
2018-08-19T07:44:43.700Z,1017.53
2018-08-19T07:47:12.252Z,1001.80
2018-08-19T07:49:40.797Z,1016.23
2018-08-19T07:52:09.310Z,1035.80
2018-08-19T07:54:37.859Z,1022.87
2018-08-19T07:57:16.335Z,1046.07
2018-08-19T07:59:47.176Z,1052.43
2018-08-19T08:02:15.768Z,1060.03
2018-08-19T08:04:45.225Z,1078.97
2018-08-19T08:07:14.977Z,1101.70
2018-08-19T08:09:43.793Z,1119.10
2018-08-19T08:12:13.610Z,1171.63
2018-08-19T08:14:47.601Z,1226.47
2018-08-19T08:17:16.238Z,1282.83
2018-08-19T08:19:52.880Z,1284.10
2018-08-19T08:22:21.885Z,1274.10
2018-08-19T08:24:50.466Z,1283.23
2018-08-19T08:27:19.046Z,1382.37
2018-08-19T08:29:47.595Z,1383.17
2018-08-19T08:32:16.183Z,1320.60
2018-08-19T08:34:44.745Z,1173.67
2018-08-19T08:37:13.581Z,1061.73
2018-08-19T08:39:42.212Z,1187.67
2018-08-19T08:42:10.755Z,1234.77
2018-08-19T08:44:39.371Z,1338.70
2018-08-19T08:47:11.136Z,1322.93
2018-08-19T08:49:45.139Z,1257.70
2018-08-19T08:52:19.127Z,1324.73
2018-08-19T08:54:53.079Z,1334.03
2018-08-19T08:57:22.453Z,1401.30
2018-08-19T08:59:51.532Z,1370.33
2018-08-19T09:02:20.741Z,1365.30
2018-08-19T09:04:50.077Z,1431.47
2018-08-19T09:07:19.159Z,1355.03
2018-08-19T09:09:48.262Z,1397.83
2018-08-19T09:12:19.009Z,1377.07
2018-08-19T09:14:47.706Z,1349.10
2018-08-19T09:17:16.251Z,1303.87
2018-08-19T09:19:44.882Z,1324.77
2018-08-19T09:22:13.481Z,1313.57
2018-08-19T09:24:42.040Z,1246.30
2018-08-19T09:27:10.699Z,1126.43
2018-08-19T09:29:39.215Z,1147.73
2018-08-19T09:32:07.856Z,1163.00
2018-08-19T09:34:36.391Z,1052.10
2018-08-19T09:37:04.998Z,1039.47
2018-08-19T09:39:33.581Z,1136.23
2018-08-19T09:42:09.325Z,1181.23
2018-08-19T09:44:38.488Z,1178.33
2018-08-19T09:47:07.360Z,971.43
2018-08-19T09:49:36.154Z,960.60
2018-08-19T09:52:04.812Z,939.87
2018-08-19T09:54:35.345Z,959.30
2018-08-19T09:57:04.748Z,891.43
2018-08-19T09:59:33.317Z,861.27
2018-08-19T10:02:05.741Z,821.27
2018-08-19T10:04:34.541Z,824.93
2018-08-19T10:07:08.576Z,835.07
2018-08-19T10:09:37.165Z,837.37
2018-08-19T10:12:05.751Z,840.63
2018-08-19T10:14:34.348Z,827.40
2018-08-19T10:17:02.944Z,861.10
2018-08-19T10:19:31.508Z,892.67
2018-08-19T10:22:00.045Z,897.67
2018-08-19T10:24:29.846Z,901.70
2018-08-19T10:26:58.742Z,868.83
2018-08-19T10:29:27.343Z,847.43
2018-08-19T10:31:59.598Z,831.23
2018-08-19T10:34:29.444Z,852.60
2018-08-19T10:36:58.614Z,835.30
2018-08-19T10:39:27.183Z,807.47
2018-08-19T10:42:11.065Z,850.07
2018-08-19T10:44:39.596Z,813.87
2018-08-19T10:47:08.166Z,818.20
2018-08-19T10:49:36.689Z,831.60
2018-08-19T10:52:07.636Z,820.20
2018-08-19T10:54:36.157Z,829.03
2018-08-19T10:57:16.585Z,843.60
2018-08-19T10:59:45.739Z,842.60
2018-08-19T11:02:14.308Z,839.03
2018-08-19T11:04:45.776Z,770.90
2018-08-19T11:07:14.357Z,818.13
2018-08-19T11:09:54.015Z,834.80
2018-08-19T11:12:22.808Z,817.53
2018-08-19T11:14:51.348Z,803.63
2018-08-19T11:17:19.924Z,834.13
2018-08-19T11:19:50.834Z,831.97
2018-08-19T11:22:19.476Z,839.03
2018-08-19T11:24:48.047Z,804.80
2018-08-19T11:27:16.608Z,796.07
2018-08-19T11:29:45.168Z,770.63
2018-08-19T11:32:23.132Z,802.90
2018-08-19T11:34:51.680Z,759.80
2018-08-19T11:37:20.347Z,791.77
2018-08-19T11:39:48.949Z,770.83
2018-08-19T11:42:17.556Z,770.57
2018-08-19T11:44:46.061Z,755.37
2018-08-19T11:47:14.617Z,771.33
2018-08-19T11:49:43.154Z,757.10
2018-08-19T11:52:11.829Z,784.43
2018-08-19T11:54:40.424Z,746.00
2018-08-19T11:57:10.433Z,781.50
2018-08-19T11:59:41.250Z,761.90
2018-08-19T12:02:12.104Z,779.53
2018-08-19T12:04:40.568Z,769.43
2018-08-19T12:07:09.129Z,779.43
2018-08-19T12:09:38.888Z,750.63
2018-08-19T12:12:07.416Z,742.87
2018-08-19T12:14:36.976Z,768.83
2018-08-19T12:17:09.309Z,771.00
2018-08-19T12:19:41.388Z,761.30
2018-08-19T12:22:10.206Z,762.57
2018-08-19T12:24:41.749Z,782.67
2018-08-19T12:27:11.704Z,763.87
2018-08-19T12:29:41.389Z,755.50
2018-08-19T12:32:22.144Z,756.57
2018-08-19T12:34:51.856Z,766.17
2018-08-19T12:37:21.674Z,746.10
2018-08-19T12:39:51.037Z,769.70
2018-08-19T12:42:19.618Z,788.63
2018-08-19T12:44:49.725Z,782.20
2018-08-19T12:47:21.590Z,781.87
2018-08-19T12:49:55.545Z,789.20
2018-08-19T12:52:25.590Z,801.37
2018-08-19T12:54:59.508Z,780.53
2018-08-19T12:57:28.135Z,803.23
2018-08-19T13:00:07.376Z,799.43
2018-08-19T13:02:43.495Z,802.93
2018-08-19T13:05:12.755Z,806.07
2018-08-19T13:07:41.603Z,799.73
2018-08-19T13:10:10.254Z,804.97
2018-08-19T13:12:58.271Z,804.83
2018-08-19T13:15:29.230Z,787.67
2018-08-19T13:17:57.912Z,786.07
2018-08-19T13:20:26.801Z,780.93
2018-08-19T13:23:00.416Z,790.00
2018-08-19T13:25:29.249Z,784.67
2018-08-19T13:27:57.870Z,802.03
2018-08-19T13:30:26.455Z,798.93
2018-08-19T13:32:55.071Z,795.70
2018-08-19T13:35:23.610Z,798.10
2018-08-19T13:37:52.246Z,793.07
2018-08-19T13:40:20.818Z,776.47
2018-08-19T13:42:49.396Z,748.10
2018-08-19T13:45:19.169Z,730.53
2018-08-19T13:47:49.021Z,738.07
2018-08-19T13:50:17.604Z,726.03
2018-08-19T13:52:46.263Z,741.87
2018-08-19T13:55:17.078Z,723.40
2018-08-19T13:57:45.737Z,712.47
2018-08-19T14:00:18.454Z,725.77
2018-08-19T14:02:47.592Z,719.33
2018-08-19T14:05:16.153Z,711.37
2018-08-19T14:07:44.718Z,756.23
2018-08-19T14:10:14.443Z,761.73
2018-08-19T14:12:42.993Z,753.47
2018-08-19T14:15:11.755Z,733.60
2018-08-19T14:17:40.444Z,757.83
2018-08-19T14:20:09.826Z,758.47
2018-08-19T14:22:38.380Z,788.40
2018-08-19T14:25:08.441Z,800.50
2018-08-19T14:27:37.172Z,812.27
2018-08-19T14:30:06.459Z,782.57
2018-08-19T14:32:38.080Z,808.23
2018-08-19T14:35:06.952Z,811.03
2018-08-19T14:37:35.758Z,820.80
2018-08-19T14:40:05.405Z,789.43
2018-08-19T14:42:33.976Z,833.93
2018-08-19T14:45:02.732Z,819.80
2018-08-19T14:47:31.299Z,829.47
2018-08-19T14:49:59.966Z,835.40
2018-08-19T14:52:29.001Z,833.77
2018-08-19T14:54:57.598Z,838.93
2018-08-19T14:57:26.195Z,834.20
2018-08-19T14:59:54.757Z,845.00
2018-08-19T15:02:23.316Z,863.73
2018-08-19T15:04:51.823Z,910.40
2018-08-19T15:07:20.385Z,874.10
2018-08-19T15:09:50.651Z,896.77
2018-08-19T15:12:21.171Z,941.33
2018-08-19T15:14:50.268Z,914.87
2018-08-19T15:17:19.030Z,906.50
2018-08-19T15:19:50.626Z,960.33
2018-08-19T15:22:19.360Z,969.00
2018-08-19T15:24:48.020Z,991.47
2018-08-19T15:27:16.629Z,991.73
2018-08-19T15:29:47.388Z,999.37
2018-08-19T15:32:16.239Z,993.80
2018-08-19T15:34:44.562Z,1024.80
2018-08-19T15:37:13.190Z,1017.07
2018-08-19T15:39:41.770Z,1014.70
2018-08-19T15:42:10.284Z,1013.30
2018-08-19T15:44:38.945Z,1012.87
2018-08-19T15:47:07.537Z,1020.53
2018-08-19T15:49:36.107Z,1019.53
2018-08-19T15:52:04.874Z,1024.73
2018-08-19T15:54:33.442Z,1023.47
2018-08-19T15:57:03.418Z,1062.63
2018-08-19T15:59:36.459Z,1051.97
2018-08-19T16:02:05.187Z,1075.10
2018-08-19T16:04:33.771Z,1082.77
2018-08-19T16:07:02.425Z,1114.87
2018-08-19T16:09:31.809Z,1165.67
2018-08-19T16:12:00.454Z,1106.23
2018-08-19T16:14:30.055Z,1055.23
2018-08-19T16:16:59.804Z,1041.00
2018-08-19T16:19:28.368Z,1080.57
2018-08-19T16:21:58.009Z,1079.23
2018-08-19T16:24:26.947Z,1079.33
2018-08-19T16:26:55.537Z,1192.70
2018-08-19T16:29:24.075Z,1185.80
2018-08-19T16:31:52.809Z,1094.13
2018-08-19T16:34:21.584Z,1159.63
2018-08-19T16:36:50.206Z,1121.10
2018-08-19T16:39:19.185Z,1110.17
2018-08-19T16:41:47.743Z,1136.20
2018-08-19T16:44:16.321Z,1107.77
2018-08-19T16:46:45.021Z,1145.27
2018-08-19T16:49:13.645Z,1088.40
2018-08-19T16:51:42.322Z,1124.50
2018-08-19T16:54:10.893Z,1134.40
2018-08-19T16:56:39.457Z,1111.43
2018-08-19T16:59:08.015Z,1107.07
2018-08-19T17:01:36.583Z,1076.83
2018-08-19T17:04:05.168Z,1050.47
2018-08-19T17:06:33.791Z,1120.10
2018-08-19T17:09:02.285Z,1125.93
2018-08-19T17:11:30.824Z,1056.97
2018-08-19T17:13:59.305Z,1117.17
2018-08-19T17:16:27.778Z,1074.53
2018-08-19T17:18:56.345Z,1102.70
2018-08-19T17:21:24.852Z,1036.77
2018-08-19T17:23:53.377Z,1116.50
2018-08-19T17:26:23.047Z,1092.53
2018-08-19T17:28:51.788Z,1087.43
2018-08-19T17:31:20.611Z,1096.60
2018-08-19T17:33:49.119Z,1146.93
2018-08-19T17:36:26.793Z,1194.77
2018-08-19T17:38:55.392Z,1078.13
2018-08-19T17:41:23.924Z,1100.17
2018-08-19T17:43:52.452Z,1139.90
2018-08-19T17:46:21.338Z,1117.67
2018-08-19T17:48:49.831Z,1101.33
2018-08-19T17:51:27.897Z,1138.97
2018-08-19T17:53:56.439Z,1130.97
2018-08-19T17:56:24.925Z,1194.13
2018-08-19T17:58:53.478Z,1144.03
2018-08-19T18:01:22.388Z,1184.13
2018-08-19T18:03:50.929Z,1143.40
2018-08-19T18:06:19.458Z,1163.73
2018-08-19T18:08:49.751Z,1179.13
2018-08-19T18:11:18.708Z,1218.37
2018-08-19T18:13:47.447Z,1259.97
2018-08-19T18:16:16.344Z,1260.50
2018-08-19T18:18:45.593Z,1265.73
2018-08-19T18:21:14.180Z,1299.87
2018-08-19T18:23:47.424Z,1263.77
2018-08-19T18:26:16.065Z,1331.23
2018-08-19T18:28:46.323Z,1375.70
2018-08-19T18:31:17.506Z,1368.43
2018-08-19T18:33:51.774Z,1304.97
2018-08-19T18:36:21.497Z,1227.10
2018-08-19T18:38:50.084Z,1173.33
2018-08-19T18:41:25.079Z,1237.03
2018-08-19T18:43:55.596Z,1166.00
2018-08-19T18:46:24.648Z,1201.20
2018-08-19T18:48:59.904Z,1189.20
2018-08-19T18:51:29.122Z,1182.70
2018-08-19T18:53:57.686Z,1162.83
2018-08-19T18:56:27.362Z,1202.03
2018-08-19T18:58:56.047Z,1207.20
2018-08-19T19:01:24.616Z,1152.43
2018-08-19T19:03:53.276Z,1192.93
2018-08-19T19:06:21.904Z,1220.77
2018-08-19T19:08:50.729Z,1208.83
2018-08-19T19:11:21.538Z,1179.33
2018-08-19T19:13:50.047Z,1167.20
2018-08-19T19:16:23.002Z,1165.77
2018-08-19T19:18:51.593Z,1231.83
2018-08-19T19:21:20.121Z,1187.53
2018-08-19T19:23:48.686Z,1214.93
2018-08-19T19:26:17.297Z,1237.83
2018-08-19T19:28:45.873Z,1217.37
2018-08-19T19:31:16.694Z,1243.90
2018-08-19T19:33:45.189Z,1253.40
2018-08-19T19:36:19.281Z,1262.30
2018-08-19T19:38:57.764Z,1216.13
2018-08-19T19:41:30.666Z,1210.07
2018-08-19T19:44:00.617Z,1283.77
2018-08-19T19:46:29.201Z,1311.17
2018-08-19T19:48:57.753Z,1300.70
2018-08-19T19:51:26.263Z,1332.97
2018-08-19T19:53:54.806Z,1319.80
2018-08-19T19:56:23.356Z,1353.00
2018-08-19T19:58:51.880Z,1333.10
2018-08-19T20:01:20.499Z,1341.43
2018-08-19T20:03:53.692Z,1320.50
2018-08-19T20:06:22.504Z,1307.57
2018-08-19T20:08:51.224Z,1348.50
2018-08-19T20:11:24.973Z,1338.00
2018-08-19T20:13:53.616Z,1371.70
2018-08-19T20:16:22.176Z,1344.23
2018-08-19T20:18:50.724Z,1371.30
2018-08-19T20:21:22.923Z,1341.70
2018-08-19T20:23:52.556Z,1344.10
2018-08-19T20:26:21.703Z,1339.03
2018-08-19T20:28:51.772Z,1360.60
2018-08-19T20:31:20.279Z,1377.47
2018-08-19T20:33:48.832Z,1434.80
2018-08-19T20:36:17.380Z,1435.57
2018-08-19T20:38:45.989Z,1398.83
2018-08-19T20:41:14.591Z,1392.97
2018-08-19T20:43:43.148Z,1451.13
2018-08-19T20:46:11.678Z,1433.73
2018-08-19T20:48:40.213Z,1421.37
2018-08-19T20:51:08.765Z,1435.93
2018-08-19T20:53:37.312Z,1418.90
2018-08-19T20:56:05.905Z,1436.13
2018-08-19T20:58:34.495Z,1431.20
2018-08-19T21:01:03.100Z,1470.77
2018-08-19T21:03:31.881Z,1437.30
2018-08-19T21:06:00.452Z,1404.80
2018-08-19T21:08:28.965Z,1410.93
2018-08-19T21:10:57.588Z,1425.10
2018-08-19T21:13:26.172Z,1417.60
2018-08-19T21:15:55.577Z,1423.63
2018-08-19T21:18:24.150Z,1338.17
2018-08-19T21:20:53.926Z,1358.87
2018-08-19T21:23:22.471Z,1341.07
2018-08-19T21:25:56.759Z,1357.17
2018-08-19T21:28:25.332Z,1306.17
2018-08-19T21:30:53.904Z,1300.33
2018-08-19T21:33:22.500Z,1287.13
2018-08-19T21:35:53.781Z,1266.27
2018-08-19T21:38:25.381Z,1267.37
2018-08-19T21:40:58.032Z,1241.43
2018-08-19T21:43:29.649Z,1230.07
2018-08-19T21:45:58.719Z,1239.37
2018-08-19T21:48:27.276Z,1251.47
2018-08-19T21:50:55.784Z,1209.33
2018-08-19T21:53:24.412Z,1214.97
2018-08-19T21:55:53.684Z,1211.50
2018-08-19T21:58:22.334Z,1167.50
2018-08-19T22:00:58.824Z,1167.80
2018-08-19T22:03:32.676Z,1179.33
2018-08-19T22:06:03.552Z,1147.37
2018-08-19T22:08:32.154Z,1147.47
2018-08-19T22:11:00.696Z,1083.03
2018-08-19T22:13:29.409Z,1067.03
2018-08-19T22:15:58.038Z,1063.70
2018-08-19T22:18:29.441Z,1028.63
2018-08-19T22:21:06.033Z,975.13
2018-08-19T22:23:40.647Z,975.23
2018-08-19T22:26:10.435Z,981.90
2018-08-19T22:28:39.344Z,997.13
2018-08-19T22:31:19.973Z,988.87
2018-08-19T22:33:52.104Z,1038.80
2018-08-19T22:36:21.051Z,1072.13
2018-08-19T22:38:50.255Z,937.63
2018-08-19T22:41:21.705Z,595.27
2018-08-19T22:43:50.499Z,661.40
2018-08-19T22:46:19.080Z,444.13
2018-08-19T22:48:47.700Z,458.33
2018-08-19T22:51:16.202Z,550.00
2018-08-19T22:53:44.740Z,365.47
2018-08-19T22:56:13.296Z,256.43
2018-08-19T22:58:41.858Z,235.37
2018-08-19T23:01:10.439Z,297.70
2018-08-19T23:03:38.996Z,386.90
2018-08-19T23:06:07.528Z,399.37
2018-08-19T23:08:36.108Z,519.97
2018-08-19T23:11:05.118Z,436.63
2018-08-19T23:13:44.820Z,294.17
2018-08-19T23:16:13.688Z,101.80
2018-08-19T23:18:43.015Z,111.57
2018-08-19T23:21:11.751Z,165.63
2018-08-19T23:23:40.260Z,297.10
2018-08-19T23:26:08.772Z,427.37
2018-08-19T23:28:37.255Z,464.13
2018-08-19T23:31:05.796Z,510.00
2018-08-19T23:33:34.313Z,541.93
2018-08-19T23:36:02.809Z,530.10
2018-08-19T23:38:31.329Z,483.37
2018-08-19T23:40:59.796Z,464.23
2018-08-19T23:43:28.337Z,462.73
2018-08-19T23:45:57.629Z,425.80
2018-08-19T23:48:26.100Z,415.33
2018-08-19T23:50:54.603Z,398.07
2018-08-19T23:53:23.089Z,344.60
2018-08-19T23:55:51.660Z,342.10
2018-08-19T23:58:20.180Z,354.13
